| 7/9/2026 | Hennion & Walsh Asset Management Inc. | 510,183 | $5.91M | 0.2% | -2.0% | 3.480% | |
| 5/19/2026 | Bank of America Corp DE | 88,353 | $966K | 0.0% | -18.2% | 0.605% | |
| 5/19/2026 | Ashton Thomas Securities LLC | 141,200 | $1.55M | 0.2% | -1.9% | 0.966% | |
| 5/18/2026 | Royal Bank of Canada | 164,015 | $1.79M | 0.0% | -3.5% | 1.123% | |
| 3/17/2026 | Rockefeller Capital Management L.P. | 2,132 | $25K | 0.0% | -59.1% | 0.011% | |
| 2/17/2026 | Guggenheim Capital LLC | 254,899 | $2.93M | 0.0% | +9.8% | 0.000% | |
| 2/17/2026 | &PARTNERS | 12,806 | $147K | 0.0% | N/A | 0.000% | |
| 2/17/2026 | Royal Bank of Canada | 170,015 | $1.96M | 0.0% | +7.5% | 0.000% | |
| 2/13/2026 | Stifel Financial Corp | 49,822 | $573K | 0.0% | -12.4% | 0.000% | |
| 2/12/2026 | Jane Street Group LLC | 17,542 | $202K | 0.0% | N/A | 0.000% | |
Get the Latest News and Ratings for VTN and Related Stocks Enter your email address below to receive the latest news and analysts' ratings for Inv Vk Invt Ny and its competitors with MarketBeat's FREE daily newsletter.
|
| 2/11/2026 | LPL Financial LLC | 40,266 | $463K | 0.0% | +20.0% | 0.000% | |
| 2/3/2026 | Indivisible Partners | 227,767 | $2.62M | 0.3% | N/A | 0.000% | |
| 2/2/2026 | Ashton Thomas Securities LLC | 143,900 | $1.66M | 0.3% | -3.6% | 0.000% | |
| 1/14/2026 | Hennion & Walsh Asset Management Inc. | 473,944 | $5.46M | 0.2% | +87.3% | 0.000% | |
| 1/7/2026 | Aventura Private Wealth LLC | 4,000 | $46K | 0.0% | N/A | 0.000% | |
| 11/21/2025 | Alpine Global Management LLC | 56,177 | $619K | 0.1% | N/A | 0.000% | |
| 11/17/2025 | Susquehanna International Group LLP | 12,425 | $137K | 0.0% | +17.6% | 0.000% | |
| 11/17/2025 | Bank of America Corp DE | 94,920 | $1.05M | 0.0% | -15.4% | 0.000% | |
| 10/29/2025 | North Ground Capital | 106,729 | $1.18M | 0.7% | +73.6% | 0.000% | |
| 10/27/2025 | Ashton Thomas Securities LLC | 149,200 | $1.64M | 0.2% | +14.2% | 0.000% | |
| 10/24/2025 | Fingerlakes Wealth Management Inc. | 10,099 | $111K | 0.1% | N/A | 0.000% | |
| 10/22/2025 | Hennion & Walsh Asset Management Inc. | 253,029 | $2.79M | 0.1% | +52.9% | 0.000% | |
| 9/4/2025 | Osaic Holdings Inc. | 6,062 | $63K | 0.0% | -35.4% | 0.000% | |
| 8/15/2025 | Bank of America Corp DE | 112,148 | $1.17M | 0.0% | +6.8% | 0.000% | |
| 8/14/2025 | Raymond James Financial Inc. | 7,573 | $79K | 0.0% | -28.7% | 0.000% | |
| 8/13/2025 | Guggenheim Capital LLC | 354,973 | $3.71M | 0.0% | +6.3% | 0.000% | |
| 8/12/2025 | Horizon Kinetics Asset Management LLC | 12,274 | $128K | 0.0% | +17.9% | 0.000% | |
| 7/21/2025 | Ashton Thomas Securities LLC | 130,700 | $1.37M | 0.3% | +17.0% | 0.000% | |
| 5/15/2025 | Royal Bank of Canada | 148,415 | $1.55M | 0.0% | -4.5% | 0.762% | |
| 5/15/2025 | Landscape Capital Management L.L.C. | 24,381 | $255K | 0.0% | N/A | 0.125% | |
| 5/14/2025 | North Ground Capital | 68,304 | $703K | 0.7% | +32.1% | 0.351% | |
| 5/13/2025 | Sit Investment Associates Inc. | 20,212 | $211K | 0.0% | -95.1% | 0.104% | |
| 5/9/2025 | Cary Street Partners Financial LLC | 19,599 | $205K | 0.0% | +34.2% | 0.101% | |
| 4/23/2025 | Oppenheimer Asset Management Inc. | 17,874 | $187K | 0.0% | N/A | 0.092% | |
| 4/10/2025 | Hennion & Walsh Asset Management Inc. | 139,175 | $1.45M | 0.1% | -9.2% | 0.715% | |
| 2/18/2025 | Alpine Global Management LLC | 47,420 | $496K | 0.1% | N/A | 0.243% | |
| 2/17/2025 | Saba Capital Management L.P. | 200,901 | $2.10M | 0.0% | -92.7% | 1.031% | |
| 2/17/2025 | Cary Street Partners Financial LLC | 14,599 | $153K | 0.0% | N/A | 0.075% | |
| 2/17/2025 | CF Capital LLC | 51,707 | $541K | 0.6% | N/A | 0.265% | |
| 2/17/2025 | Balyasny Asset Management L.P. | 19,441 | $204K | 0.0% | N/A | 0.100% | |
Your $29.97 book is free today (Ad) Why Some Traders Skip Stocks Entirely
You don't need a big account to trade options.
In fact, options can give you up to 12 times the leverage of stocks — with a fraction of the capital tied up.
This free guide lays it all out in plain English — from A to Z, with step-by-step examples you can follow in your own account. Normally $29.97. Today it's free. Grab your copy now. |
| 2/17/2025 | Bank of America Corp DE | 250,348 | $2.62M | 0.0% | +6.5% | 1.285% | |
| 2/14/2025 | Alpine Global Management LLC | 47,420 | $496K | 0.1% | N/A | 0.243% | |
| 2/14/2025 | Stifel Financial Corp | 45,616 | $478K | 0.0% | +19.4% | 0.234% | |
| 2/13/2025 | Guggenheim Capital LLC | 350,865 | $3.67M | 0.0% | +3.9% | 1.801% | |
| 2/13/2025 | Walleye Capital LLC | 10,956 | $115K | 0.0% | N/A | 0.056% | |
| 2/13/2025 | Raymond James Financial Inc. | 10,678 | $112K | 0.0% | N/A | 0.055% | |
| 2/13/2025 | Sit Investment Associates Inc. | 409,252 | $4.29M | 0.1% | -78.8% | 2.101% | |
| 2/13/2025 | Wells Fargo & Company MN | 11,428 | $120K | 0.0% | -29.6% | 0.059% | |
| 2/12/2025 | Thomas J. Herzfeld Advisors Inc. | 24,132 | $253K | 0.1% | -41.9% | 0.124% | |
| 2/11/2025 | Ashton Thomas Securities LLC | 111,700 | $1.17M | 0.3% | +145.5% | 0.573% | |
| 2/11/2025 | LPL Financial LLC | 19,050 | $199K | 0.0% | N/A | 0.098% | |
| 2/10/2025 | Commonwealth Equity Services LLC | 11,436 | $120K | 0.0% | -68.8% | 0.059% | |
| 2/6/2025 | Raymond James Financial Inc. | 10,678 | $112K | 0.0% | N/A | 0.055% | |
| 2/3/2025 | Wolverine Asset Management LLC | 13,618 | $143K | 0.0% | +1,314.1% | 0.070% | |
| 1/31/2025 | Robinson Capital Management LLC | 98,122 | $1.03M | 0.4% | -59.6% | 0.504% | |
| 1/22/2025 | Joseph P. Lucia & Associates LLC | 26,064 | $273K | 0.1% | +131.3% | 0.134% | |
| 1/22/2025 | PFG Investments LLC | 10,700 | $112K | 0.0% | N/A | 0.055% | |
| 1/15/2025 | Hennion & Walsh Asset Management Inc. | 153,293 | $1.61M | 0.1% | +2.0% | 0.787% | |
| 12/3/2024 | Rivernorth Capital Management LLC | 201,747 | $2.33M | 0.1% | +24.0% | 1.036% | |
| 11/15/2024 | Rivernorth Capital Management LLC | 197,573 | $2.28M | 0.1% | +21.4% | 1.014% | |
| 10/23/2024 | Hennion & Walsh Asset Management Inc. | 150,218 | $1.73M | 0.1% | -34.1% | 0.771% | |
| 8/16/2024 | Almitas Capital LLC | 96,688 | $1.09M | 0.5% | -37.5% | 0.496% | |
| 8/15/2024 | Logan Stone Capital LLC | 129,794 | $1.46M | 0.4% | -45.3% | 0.666% | |
| 8/14/2024 | Whitebox Advisors LLC | 120,354 | $1.35M | 0.0% | +228.9% | 0.618% | |
| 7/24/2024 | Joseph P. Lucia & Associates LLC | 11,267 | $127K | 0.1% | N/A | 0.058% | |
| 7/20/2024 | Hennion & Walsh Asset Management Inc. | 227,802 | $2.56M | 0.1% | +3.0% | 1.170% | |
| 5/15/2024 | Whitebox Advisors LLC | 36,588 | $393K | 0.0% | N/A | 0.188% | |
| 5/14/2024 | Karpus Management Inc. | 68,675 | $738K | 0.0% | -2.3% | 0.353% | |
| 4/24/2024 | Blue Bell Private Wealth Management LLC | 14,141 | $152K | 0.0% | +171.3% | 0.073% | |
| 4/17/2024 | Hennion & Walsh Asset Management Inc. | 221,118 | $2.38M | 0.1% | -21.3% | 1.135% | |
| 4/11/2024 | Sanders Morris Harris LLC | 39,004 | $419K | 0.1% | N/A | 0.200% | |
| 3/27/2024 | Nomura Holdings Inc. | 10,855 | $113K | 0.0% | N/A | 0.056% | |
| 2/22/2024 | Scarborough Advisors LLC | 25,000 | $260K | 0.0% | N/A | 0.128% | |
| 2/13/2024 | Karpus Management Inc. | 70,300 | $732K | 0.0% | -93.9% | 0.361% | |
| 2/8/2024 | Robinson Capital Management LLC | 383,936 | $3.99M | 1.4% | +83.8% | 1.971% | |
| 1/25/2024 | Blue Bell Private Wealth Management LLC | 5,213 | $54K | 0.0% | N/A | 0.027% | |
| 11/21/2023 | Almitas Capital LLC | 19,378 | $166K | 0.1% | N/A | 0.099% | |
| 11/14/2023 | AQR Arbitrage LLC | 136,986 | $1.25M | 0.1% | +89.9% | 0.703% | |
| 11/14/2023 | Saba Capital Management L.P. | 1,304,789 | $11.89M | 0.3% | +122.4% | 6.698% | |
| 11/14/2023 | Robinson Capital Management LLC | 208,936 | $1.89M | 0.8% | +6.8% | 1.073% | |
| 11/9/2023 | Fiera Capital Corp | 349,204 | $3.18M | 0.0% | +2.4% | 1.793% | |
| 11/9/2023 | Karpus Management Inc. | 1,146,531 | $10.45M | 0.4% | -5.5% | 5.886% | |
| 11/8/2023 | Fort Point Capital Partners LLC | 17,717 | $161K | 0.0% | N/A | 0.091% | |
| 10/27/2023 | Hennion & Walsh Asset Management Inc. | 272,485 | $2.48M | 0.1% | -28.1% | 1.399% | |
| 10/23/2023 | Commonwealth Equity Services LLC | 36,204 | $330K | 0.0% | +12.4% | 0.186% | |
| 8/11/2023 | Karpus Management Inc. | 1,213,590 | $12.40M | 0.4% | -6.9% | 6.230% | |
| 8/11/2023 | Guggenheim Capital LLC | 372,932 | $3.81M | 0.0% | -6.0% | 1.914% | |
| 8/10/2023 | Sit Investment Associates Inc. | 331,012 | $3.38M | 0.1% | -0.8% | 1.699% | |
| 8/9/2023 | Fiera Capital Corp | 340,995 | $3.49M | 0.0% | +14.6% | 1.750% | |
| 8/7/2023 | Wolverine Asset Management LLC | 8,440 | $86K | 0.0% | N/A | 0.043% | |
Small Colorado Company (Backed by Sam Altman) Could Save U.S. Power Grid (Ad) A small Colorado company has secured rights to technology that could prevent the U.S. public power grid from collapsing — and billionaire Sam Altman is now an investor.
This under-the-radar firm is drawing serious attention from those watching the energy infrastructure space closely. Click here to learn this company's name for free today |
| 8/7/2023 | Tortoise Investment Management LLC | 29,340 | $300K | 0.0% | -32.6% | 0.151% | |
| 8/2/2023 | Bank of Montreal Can | 20,602 | $248K | 0.0% | N/A | 0.106% | |
| 7/31/2023 | Dakota Wealth Management | 31,644 | $323K | 0.0% | -42.1% | 0.162% | |
| 5/11/2023 | Karpus Management Inc. | 1,303,389 | $13.63M | 0.4% | -2.7% | 6.689% | |
| 5/11/2023 | Guggenheim Capital LLC | 396,805 | $4.15M | 0.0% | +19.9% | 2.036% | |
| 5/9/2023 | Tortoise Investment Management LLC | 43,540 | $455K | 0.1% | -53.0% | 0.223% | |
| 4/26/2023 | Fiera Capital Corp | 297,640 | $3.11M | 0.0% | -4.6% | 1.527% | |
| 4/20/2023 | Hennion & Walsh Asset Management Inc. | 367,649 | $3.85M | 0.2% | -20.7% | 1.886% | |
| 4/14/2023 | Dakota Wealth Management | 54,614 | $571K | 0.0% | +26.0% | 0.280% | |
| 4/11/2023 | Canandaigua National Bank & Trust Co. | 13,000 | $136K | 0.0% | N/A | 0.067% | |